Time;durP1;ratioP1;P1;durP2;ratioP2;P2;SDS_P1;SDS_P2;PMS_P1;PMS_P2;Temp;Humidity;BMP_temperature;BMP_pressure;BME280_temperature;BME280_humidity;BME280_pressure;Samples;Min_cycle;Max_cycle;Signal;HPM_P1;HPM_P2
2023/04/26 00:02:05;;;;;;;12.30;4.47;;;;;;;;;;760497;182;918127;-58
2023/04/26 00:04:30;;;;;;;10.40;4.17;;;;;;;;;;767405;182;817055;-58
2023/04/26 00:06:57;;;;;;;9.73;4.20;;;;;;;;;;768357;180;912502;-59
2023/04/26 00:09:22;;;;;;;7.20;4.10;;;;;;;;;;767903;180;918284;-58
2023/04/26 00:11:48;;;;;;;5.80;4.03;;;;;;;;;;768786;181;1021785;-58
2023/04/26 00:14:14;;;;;;;7.03;4.90;;;;;;;;;;761580;184;878540;-58
2023/04/26 00:16:40;;;;;;;10.73;4.57;;;;;;;;;;762959;182;919703;-58
2023/04/26 00:19:06;;;;;;;7.80;5.00;;;;;;;;;;763916;182;1021754;-58
2023/04/26 00:21:31;;;;;;;8.87;4.57;;;;;;;;;;773041;182;921129;-58
2023/04/26 00:23:57;;;;;;;7.70;4.80;;;;;;;;;;768213;182;919097;-58
2023/04/26 00:26:23;;;;;;;9.67;4.90;;;;;;;;;;766948;182;918363;-59
2023/04/26 00:28:49;;;;;;;10.33;5.10;;;;;;;;;;759221;182;918379;-58
2023/04/26 00:31:15;;;;;;;10.23;5.20;;;;;;;;;;764659;181;918169;-58
2023/04/26 00:33:41;;;;;;;10.73;4.73;;;;;;;;;;762453;182;919888;-58
2023/04/26 00:36:07;;;;;;;7.57;4.55;;;;;;;;;;763751;181;919408;-58
2023/04/26 00:38:33;;;;;;;8.10;4.30;;;;;;;;;;742927;183;917050;-58
2023/04/26 00:40:59;;;;;;;8.83;5.40;;;;;;;;;;729087;191;919276;-58
2023/04/26 00:43:25;;;;;;;9.47;5.40;;;;;;;;;;743338;185;919460;-58
2023/04/26 00:45:51;;;;;;;12.17;7.13;;;;;;;;;;750817;186;921024;-58
2023/04/26 00:48:16;;;;;;;9.83;4.83;;;;;;;;;;753300;183;919640;-58
2023/04/26 00:50:42;;;;;;;6.93;4.23;;;;;;;;;;762725;182;921972;-58
2023/04/26 00:53:08;;;;;;;15.77;6.10;;;;;;;;;;761971;182;919313;-58
2023/04/26 00:55:34;;;;;;;10.43;5.17;;;;;;;;;;751490;184;919966;-59
2023/04/26 00:58:00;;;;;;;9.50;5.00;;;;;;;;;;751865;183;919424;-58
2023/04/26 01:00:26;;;;;;;7.50;4.57;;;;;;;;;;766539;182;883612;-58
2023/04/26 01:02:52;;;;;;;8.70;4.70;;;;;;;;;;763250;182;918689;-58
2023/04/26 01:05:17;;;;;;;9.43;5.00;;;;;;;;;;757730;182;917807;-59
2023/04/26 01:07:43;;;;;;;6.87;4.80;;;;;;;;;;748599;185;866811;-58
2023/04/26 01:10:09;;;;;;;10.27;5.63;;;;;;;;;;769293;183;916643;-58
2023/04/26 01:12:35;;;;;;;9.00;6.00;;;;;;;;;;761167;182;916368;-58
2023/04/26 01:15:01;;;;;;;9.00;4.73;;;;;;;;;;739171;187;1020988;-58
2023/04/26 01:17:27;;;;;;;12.53;5.00;;;;;;;;;;754623;184;920652;-58
2023/04/26 01:19:53;;;;;;;6.00;4.67;;;;;;;;;;764385;181;918731;-58
2023/04/26 01:22:19;;;;;;;10.80;5.27;;;;;;;;;;768245;181;919011;-58
2023/04/26 01:24:45;;;;;;;8.32;4.00;;;;;;;;;;769058;182;920135;-58
2023/04/26 01:27:10;;;;;;;11.17;4.10;;;;;;;;;;766425;180;919685;-58
2023/04/26 01:29:36;;;;;;;12.87;3.73;;;;;;;;;;766370;179;919032;-58
2023/04/26 01:32:02;;;;;;;6.97;4.53;;;;;;;;;;767659;182;918007;-58
2023/04/26 01:34:28;;;;;;;8.77;4.13;;;;;;;;;;762027;181;817311;-58
2023/04/26 01:36:54;;;;;;;10.60;4.20;;;;;;;;;;761656;181;919378;-58
2023/04/26 01:39:20;;;;;;;7.62;4.12;;;;;;;;;;760022;182;920570;-58
2023/04/26 01:41:45;;;;;;;8.30;4.47;;;;;;;;;;764882;182;915955;-58
2023/04/26 01:44:11;;;;;;;12.20;5.40;;;;;;;;;;755611;184;932392;-58
2023/04/26 01:46:37;;;;;;;14.50;5.40;;;;;;;;;;752807;182;919321;-61
2023/04/26 01:49:03;;;;;;;9.17;5.43;;;;;;;;;;751230;186;912871;-58
2023/04/26 01:51:29;;;;;;;14.50;5.73;;;;;;;;;;763741;182;920249;-58
2023/04/26 01:53:55;;;;;;;18.50;6.03;;;;;;;;;;752580;182;913483;-58
2023/04/26 01:56:21;;;;;;;11.60;6.50;;;;;;;;;;761447;182;818542;-58
2023/04/26 01:58:46;;;;;;;12.37;5.00;;;;;;;;;;767909;182;820553;-59
2023/04/26 02:01:12;;;;;;;9.13;4.80;;;;;;;;;;769408;181;917833;-58
2023/04/26 02:03:38;;;;;;;11.93;4.87;;;;;;;;;;761124;182;920078;-58
2023/04/26 02:06:04;;;;;;;8.40;6.07;;;;;;;;;;762905;182;910597;-58
2023/04/26 02:08:30;;;;;;;10.00;5.67;;;;;;;;;;763549;182;919359;-58
2023/04/26 02:10:56;;;;;;;7.43;4.60;;;;;;;;;;766703;181;920185;-58
2023/04/26 02:13:21;;;;;;;6.97;5.13;;;;;;;;;;771202;182;914541;-58
2023/04/26 02:15:47;;;;;;;8.03;5.50;;;;;;;;;;767796;182;818861;-58
2023/04/26 02:18:14;;;;;;;11.95;4.85;;;;;;;;;;766586;182;917602;-58
2023/04/26 02:20:42;;;;;;;8.13;4.93;;;;;;;;;;771851;182;870816;-58
2023/04/26 02:23:06;;;;;;;9.30;4.57;;;;;;;;;;764068;182;917726;-58
2023/04/26 02:25:32;;;;;;;10.00;6.20;;;;;;;;;;752948;184;917302;-58
2023/04/26 02:27:57;;;;;;;9.70;4.73;;;;;;;;;;762314;182;918438;-58
2023/04/26 02:30:23;;;;;;;7.57;4.93;;;;;;;;;;768681;181;919072;-58
2023/04/26 02:32:49;;;;;;;8.53;5.10;;;;;;;;;;765190;182;919260;-58
2023/04/26 02:35:15;;;;;;;7.73;5.30;;;;;;;;;;767953;181;919569;-58
2023/04/26 02:37:41;;;;;;;12.43;5.97;;;;;;;;;;769871;184;918086;-58
2023/04/26 02:40:09;;;;;;;6.23;4.60;;;;;;;;;;757841;182;920104;-58
2023/04/26 02:42:33;;;;;;;8.57;4.33;;;;;;;;;;750050;185;920546;-58
2023/04/26 02:44:59;;;;;;;7.73;5.47;;;;;;;;;;767817;182;919566;-58
2023/04/26 02:47:25;;;;;;;7.93;4.73;;;;;;;;;;764247;182;920236;-59
2023/04/26 02:49:51;;;;;;;11.17;6.60;;;;;;;;;;762509;182;925760;-58
2023/04/26 02:52:16;;;;;;;8.57;5.00;;;;;;;;;;764186;182;920295;-58
2023/04/26 02:54:42;;;;;;;15.40;5.50;;;;;;;;;;773867;181;818813;-58
2023/04/26 02:57:08;;;;;;;10.57;5.97;;;;;;;;;;762449;181;919584;-58
2023/04/26 02:59:34;;;;;;;11.93;4.82;;;;;;;;;;763968;181;878706;-59
2023/04/26 03:02:00;;;;;;;10.53;7.07;;;;;;;;;;770057;182;820261;-58
2023/04/26 03:04:26;;;;;;;9.40;4.50;;;;;;;;;;763625;182;902733;-58
2023/04/26 03:06:51;;;;;;;10.37;4.90;;;;;;;;;;762862;184;918304;-58
2023/04/26 03:09:17;;;;;;;7.80;4.50;;;;;;;;;;772214;181;817238;-58
2023/04/26 03:11:43;;;;;;;16.90;5.53;;;;;;;;;;762700;182;920129;-57
2023/04/26 03:14:09;;;;;;;9.57;4.72;;;;;;;;;;759969;179;912010;-57
2023/04/26 03:16:35;;;;;;;9.90;3.90;;;;;;;;;;750996;184;918908;-58
2023/04/26 03:19:00;;;;;;;9.73;4.70;;;;;;;;;;763988;182;919503;-57
2023/04/26 03:21:26;;;;;;;7.40;4.73;;;;;;;;;;768130;181;917904;-57
2023/04/26 03:23:52;;;;;;;5.83;4.00;;;;;;;;;;766915;181;906316;-58
2023/04/26 03:26:18;;;;;;;8.23;4.13;;;;;;;;;;769527;183;919142;-57
2023/04/26 03:28:44;;;;;;;6.15;4.18;;;;;;;;;;767766;182;816473;-58
2023/04/26 03:31:10;;;;;;;5.53;3.73;;;;;;;;;;764343;181;919485;-58
2023/04/26 03:33:36;;;;;;;6.23;3.50;;;;;;;;;;767785;182;821357;-59
2023/04/26 03:36:01;;;;;;;13.57;3.40;;;;;;;;;;762821;182;918574;-57
2023/04/26 03:38:27;;;;;;;8.73;4.37;;;;;;;;;;755797;182;958711;-58
2023/04/26 03:40:53;;;;;;;6.83;3.77;;;;;;;;;;761491;182;919704;-58
2023/04/26 03:43:19;;;;;;;7.83;4.50;;;;;;;;;;761860;182;919407;-58
2023/04/26 03:45:45;;;;;;;5.13;4.20;;;;;;;;;;766257;180;1021818;-58
2023/04/26 03:48:11;;;;;;;8.90;4.20;;;;;;;;;;762604;181;919174;-58
2023/04/26 03:50:36;;;;;;;9.80;4.40;;;;;;;;;;772837;182;906928;-60
2023/04/26 03:53:02;;;;;;;8.73;4.20;;;;;;;;;;751954;182;919030;-60
2023/04/26 03:55:28;;;;;;;6.47;3.95;;;;;;;;;;762533;182;918661;-60
2023/04/26 03:57:54;;;;;;;7.20;3.90;;;;;;;;;;755844;185;919123;-60
2023/04/26 04:00:20;;;;;;;19.50;4.50;;;;;;;;;;759599;182;918987;-60
2023/04/26 04:02:46;;;;;;;6.70;4.10;;;;;;;;;;766427;182;919321;-60
2023/04/26 04:05:11;;;;;;;5.80;3.37;;;;;;;;;;769875;181;922230;-60
2023/04/26 04:07:37;;;;;;;7.10;4.53;;;;;;;;;;761573;182;921851;-60
2023/04/26 04:10:03;;;;;;;7.82;4.10;;;;;;;;;;763643;182;919063;-60
2023/04/26 04:12:29;;;;;;;6.70;3.60;;;;;;;;;;762662;182;918717;-61
2023/04/26 04:14:55;;;;;;;8.10;3.87;;;;;;;;;;763305;182;884599;-58
2023/04/26 04:17:21;;;;;;;19.33;4.30;;;;;;;;;;759040;182;923969;-58
2023/04/26 04:19:47;;;;;;;7.23;4.00;;;;;;;;;;760138;182;919209;-58
2023/04/26 04:22:13;;;;;;;6.50;4.00;;;;;;;;;;755679;185;808077;-58
2023/04/26 04:24:41;;;;;;;12.77;4.27;;;;;;;;;;760773;182;852619;-58
2023/04/26 04:27:04;;;;;;;7.50;4.07;;;;;;;;;;764431;182;890368;-59
2023/04/26 04:29:31;;;;;;;9.83;4.80;;;;;;;;;;764024;181;821811;-57
2023/04/26 04:31:56;;;;;;;16.27;5.30;;;;;;;;;;759311;182;913730;-58
2023/04/26 04:34:23;;;;;;;10.33;6.27;;;;;;;;;;762870;182;873816;-58
2023/04/26 04:36:50;;;;;;;8.57;6.30;;;;;;;;;;763453;182;916289;-59
2023/04/26 04:39:16;;;;;;;7.80;5.30;;;;;;;;;;773608;182;619501;-59
2023/04/26 04:41:47;;;;;;;8.67;5.50;;;;;;;;;;757484;182;923271;-59
2023/04/26 04:44:10;;;;;;;72.63;12.53;;;;;;;;;;760414;182;921888;-58
2023/04/26 04:46:36;;;;;;;12.90;6.47;;;;;;;;;;768232;182;624120;-59
2023/04/26 04:49:02;;;;;;;11.13;5.47;;;;;;;;;;764260;182;917571;-58
2023/04/26 04:51:27;;;;;;;13.43;7.27;;;;;;;;;;760937;183;945195;-58
2023/04/26 04:53:54;;;;;;;9.98;6.30;;;;;;;;;;770125;182;919912;-58
2023/04/26 04:56:21;;;;;;;10.67;6.17;;;;;;;;;;764313;181;921517;-58
2023/04/26 04:58:47;;;;;;;10.33;5.80;;;;;;;;;;767692;179;813324;-59
2023/04/26 05:01:14;;;;;;;9.20;5.40;;;;;;;;;;767843;180;921717;-58
2023/04/26 05:03:40;;;;;;;7.50;6.17;;;;;;;;;;763486;182;918734;-58
2023/04/26 05:06:06;;;;;;;10.83;6.40;;;;;;;;;;765971;182;918704;-58
2023/04/26 05:08:31;;;;;;;7.40;5.30;;;;;;;;;;760679;182;917772;-58
2023/04/26 05:10:58;;;;;;;9.13;6.33;;;;;;;;;;767929;182;818393;-58
2023/04/26 05:13:23;;;;;;;15.10;5.70;;;;;;;;;;764328;182;918975;-58
2023/04/26 05:15:49;;;;;;;13.50;5.67;;;;;;;;;;753953;182;821167;-59
2023/04/26 05:18:15;;;;;;;9.73;6.40;;;;;;;;;;760667;182;921914;-58
2023/04/26 05:20:41;;;;;;;9.67;6.00;;;;;;;;;;769368;182;818698;-58
2023/04/26 05:23:07;;;;;;;17.57;6.97;;;;;;;;;;765994;181;815521;-58
2023/04/26 05:25:33;;;;;;;13.43;7.77;;;;;;;;;;758846;182;919034;-59
2023/04/26 05:27:59;;;;;;;15.07;7.60;;;;;;;;;;765469;181;823508;-59
2023/04/26 05:30:25;;;;;;;17.20;5.90;;;;;;;;;;762730;183;818619;-58
2023/04/26 05:32:50;;;;;;;13.50;6.53;;;;;;;;;;754203;182;1021875;-59
2023/04/26 05:35:16;;;;;;;8.70;6.50;;;;;;;;;;756367;185;918597;-59
2023/04/26 05:37:42;;;;;;;13.63;5.30;;;;;;;;;;763213;182;919357;-57
2023/04/26 05:40:11;;;;;;;8.83;5.43;;;;;;;;;;765685;182;912843;-58
2023/04/26 05:42:34;;;;;;;20.83;5.67;;;;;;;;;;770953;182;919522;-58
2023/04/26 05:45:00;;;;;;;15.23;4.80;;;;;;;;;;766508;179;917794;-58
2023/04/26 05:47:26;;;;;;;9.83;4.23;;;;;;;;;;761750;182;916120;-58
2023/04/26 05:49:52;;;;;;;7.80;4.50;;;;;;;;;;761724;181;912880;-59
2023/04/26 05:52:18;;;;;;;8.63;4.90;;;;;;;;;;763851;182;896051;-59
2023/04/26 05:54:43;;;;;;;15.53;5.77;;;;;;;;;;748378;185;914565;-58
2023/04/26 05:57:09;;;;;;;9.50;4.70;;;;;;;;;;749403;185;921211;-58
2023/04/26 05:59:35;;;;;;;11.60;6.70;;;;;;;;;;769740;182;918106;-57
2023/04/26 06:02:01;;;;;;;6.93;4.33;;;;;;;;;;750588;185;921562;-57
2023/04/26 06:04:27;;;;;;;12.70;4.60;;;;;;;;;;767721;180;917363;-58
2023/04/26 06:06:53;;;;;;;10.10;4.70;;;;;;;;;;772903;181;920403;-58
2023/04/26 06:09:18;;;;;;;19.73;5.17;;;;;;;;;;753210;182;913352;-58
2023/04/26 06:11:45;;;;;;;9.17;4.63;;;;;;;;;;762392;182;919724;-58
2023/04/26 06:14:10;;;;;;;10.03;4.60;;;;;;;;;;770425;181;917623;-58
2023/04/26 06:16:36;;;;;;;12.37;4.60;;;;;;;;;;769872;181;893644;-58
2023/04/26 06:19:02;;;;;;;8.60;4.43;;;;;;;;;;759202;182;841039;-57
2023/04/26 06:21:28;;;;;;;7.13;4.10;;;;;;;;;;757693;182;915828;-58
2023/04/26 06:23:53;;;;;;;5.80;3.27;;;;;;;;;;764595;182;717289;-58
2023/04/26 06:26:19;;;;;;;10.40;4.07;;;;;;;;;;767956;181;816249;-58
2023/04/26 06:28:45;;;;;;;10.60;5.17;;;;;;;;;;768791;182;917819;-58
2023/04/26 06:31:11;;;;;;;9.75;5.25;;;;;;;;;;769707;182;917612;-58
2023/04/26 06:33:37;;;;;;;9.73;5.30;;;;;;;;;;766965;181;826067;-58
2023/04/26 06:36:03;;;;;;;7.10;3.97;;;;;;;;;;763714;181;918268;-58
2023/04/26 06:38:29;;;;;;;8.40;4.07;;;;;;;;;;756579;184;917137;-58
2023/04/26 06:40:54;;;;;;;7.30;3.77;;;;;;;;;;758584;182;917886;-58
2023/04/26 06:43:20;;;;;;;10.13;3.40;;;;;;;;;;751541;185;919540;-58
2023/04/26 06:45:46;;;;;;;8.65;3.97;;;;;;;;;;759479;181;919352;-58
2023/04/26 06:48:12;;;;;;;5.33;3.43;;;;;;;;;;771298;182;918296;-58
2023/04/26 06:50:38;;;;;;;5.68;3.90;;;;;;;;;;766405;182;914834;-58
2023/04/26 06:53:04;;;;;;;13.18;4.37;;;;;;;;;;763780;182;920209;-58
2023/04/26 06:55:30;;;;;;;8.77;5.33;;;;;;;;;;769657;181;919144;-58
2023/04/26 06:57:55;;;;;;;10.70;5.03;;;;;;;;;;760994;183;919589;-58
2023/04/26 07:00:21;;;;;;;12.80;5.40;;;;;;;;;;758936;182;920260;-58
2023/04/26 07:02:47;;;;;;;11.73;5.27;;;;;;;;;;768831;182;817264;-58
2023/04/26 07:05:14;;;;;;;11.07;5.23;;;;;;;;;;760431;180;913456;-59
2023/04/26 07:07:39;;;;;;;9.23;5.83;;;;;;;;;;758342;183;857859;-58
2023/04/26 07:10:06;;;;;;;13.33;3.63;;;;;;;;;;756975;182;814623;-58
2023/04/26 07:12:31;;;;;;;6.40;3.13;;;;;;;;;;763309;182;817443;-58
2023/04/26 07:14:57;;;;;;;4.57;3.20;;;;;;;;;;763025;183;917413;-59
2023/04/26 07:17:23;;;;;;;4.27;2.80;;;;;;;;;;765169;179;915339;-59
2023/04/26 07:19:48;;;;;;;8.00;3.83;;;;;;;;;;760504;183;940690;-59
2023/04/26 07:22:14;;;;;;;5.00;3.40;;;;;;;;;;766118;182;917235;-58
2023/04/26 07:24:40;;;;;;;5.37;3.00;;;;;;;;;;766222;182;919572;-58
2023/04/26 07:27:06;;;;;;;6.23;2.60;;;;;;;;;;773117;181;915534;-58
2023/04/26 07:29:32;;;;;;;6.73;3.80;;;;;;;;;;758211;182;918624;-58
2023/04/26 07:31:58;;;;;;;9.27;2.95;;;;;;;;;;762298;182;919094;-59
2023/04/26 07:34:24;;;;;;;4.70;3.43;;;;;;;;;;764540;182;918897;-59
2023/04/26 07:36:49;;;;;;;12.97;4.50;;;;;;;;;;763246;180;920702;-59
2023/04/26 07:39:15;;;;;;;7.33;3.63;;;;;;;;;;758615;184;920855;-59
2023/04/26 07:41:41;;;;;;;10.13;4.90;;;;;;;;;;756753;184;919312;-59
2023/04/26 07:44:07;;;;;;;7.33;3.27;;;;;;;;;;763288;184;920877;-58
2023/04/26 07:46:33;;;;;;;11.70;4.27;;;;;;;;;;764969;179;877702;-59
2023/04/26 07:48:59;;;;;;;9.57;3.65;;;;;;;;;;753979;187;824269;-58
2023/04/26 07:51:26;;;;;;;7.23;3.50;;;;;;;;;;770053;182;819706;-59
2023/04/26 07:53:50;;;;;;;7.40;2.90;;;;;;;;;;764751;181;919109;-58
2023/04/26 07:56:16;;;;;;;7.33;3.40;;;;;;;;;;764431;183;917542;-59
2023/04/26 07:58:42;;;;;;;6.90;2.67;;;;;;;;;;766290;184;920555;-58
2023/04/26 08:01:10;;;;;;;4.03;2.10;;;;;;;;;;764882;182;918819;-58
2023/04/26 08:03:35;;;;;;;7.17;2.80;;;;;;;;;;765485;182;920203;-58
2023/04/26 08:06:00;;;;;;;7.23;3.13;;;;;;;;;;765826;181;929901;-59
2023/04/26 08:08:26;;;;;;;8.03;4.20;;;;;;;;;;769770;181;849040;-58
2023/04/26 08:10:52;;;;;;;9.90;4.10;;;;;;;;;;765401;182;920241;-58
2023/04/26 08:13:18;;;;;;;9.50;4.10;;;;;;;;;;764025;182;920086;-58
2023/04/26 08:15:43;;;;;;;13.80;4.10;;;;;;;;;;769817;182;915461;-58
2023/04/26 08:18:09;;;;;;;6.60;2.53;;;;;;;;;;765403;182;916820;-58
2023/04/26 08:20:35;;;;;;;7.70;2.57;;;;;;;;;;764913;182;918328;-58
2023/04/26 08:23:01;;;;;;;6.90;2.90;;;;;;;;;;768565;182;917829;-58
2023/04/26 08:25:27;;;;;;;6.70;3.50;;;;;;;;;;753041;183;870143;-58
2023/04/26 08:27:53;;;;;;;5.70;3.20;;;;;;;;;;757859;181;917347;-58
2023/04/26 08:30:18;;;;;;;8.57;3.63;;;;;;;;;;758620;183;918986;-59
2023/04/26 08:32:45;;;;;;;4.60;2.60;;;;;;;;;;756084;185;919100;-59
2023/04/26 08:35:10;;;;;;;10.87;2.80;;;;;;;;;;750732;184;914851;-58
2023/04/26 08:37:36;;;;;;;4.20;2.20;;;;;;;;;;764556;181;915700;-59
2023/04/26 08:40:02;;;;;;;5.50;3.17;;;;;;;;;;757323;183;922275;-58
2023/04/26 08:42:28;;;;;;;4.00;3.00;;;;;;;;;;769810;182;918359;-57
2023/04/26 08:44:54;;;;;;;4.00;2.60;;;;;;;;;;766924;180;896850;-59
2023/04/26 08:47:30;;;;;;;5.13;2.50;;;;;;;;;;759188;183;918178;-58
2023/04/26 08:49:58;;;;;;;5.00;2.53;;;;;;;;;;763981;179;916701;-59
2023/04/26 08:52:23;;;;;;;6.53;2.73;;;;;;;;;;756563;182;918971;-59
2023/04/26 08:54:48;;;;;;;6.90;2.23;;;;;;;;;;754644;182;919232;-59
2023/04/26 08:57:14;;;;;;;5.10;2.40;;;;;;;;;;766096;182;921559;-60
2023/04/26 08:59:40;;;;;;;5.43;3.03;;;;;;;;;;765361;182;921253;-59
2023/04/26 09:02:06;;;;;;;8.40;3.00;;;;;;;;;;760116;182;821975;-59
2023/04/26 09:04:32;;;;;;;5.93;2.30;;;;;;;;;;753550;184;920800;-59
2023/04/26 09:06:58;;;;;;;3.87;2.00;;;;;;;;;;769691;182;918815;-58
2023/04/26 09:09:23;;;;;;;5.17;2.57;;;;;;;;;;767038;182;819712;-59
2023/04/26 09:11:54;;;;;;;7.37;2.43;;;;;;;;;;768155;182;917743;-60
2023/04/26 09:14:19;;;;;;;7.70;3.80;;;;;;;;;;773765;181;816703;-59
2023/04/26 09:16:45;;;;;;;6.17;2.00;;;;;;;;;;766511;181;914217;-58
2023/04/26 09:19:11;;;;;;;4.80;2.17;;;;;;;;;;764070;182;917575;-59
2023/04/26 09:21:41;;;;;;;6.37;2.37;;;;;;;;;;769100;182;919253;-59
2023/04/26 09:24:07;;;;;;;4.45;3.08;;;;;;;;;;766730;182;931682;-59
2023/04/26 09:26:33;;;;;;;4.33;2.50;;;;;;;;;;759156;182;916138;-58
2023/04/26 09:29:16;;;;;;;4.87;2.40;;;;;;;;;;762943;182;927629;-59
2023/04/26 09:31:42;;;;;;;8.37;2.60;;;;;;;;;;755826;182;1023443;-60
2023/04/26 09:34:08;;;;;;;7.20;2.87;;;;;;;;;;759017;183;919978;-60
2023/04/26 09:36:49;;;;;;;5.60;2.77;;;;;;;;;;762931;182;915799;-60
2023/04/26 09:39:14;;;;;;;9.63;2.80;;;;;;;;;;755251;180;918879;-59
2023/04/26 09:41:43;;;;;;;5.80;2.47;;;;;;;;;;767043;182;929382;-60
2023/04/26 09:44:08;;;;;;;10.80;3.80;;;;;;;;;;772338;182;852216;-59
2023/04/26 09:46:34;;;;;;;4.50;2.43;;;;;;;;;;764016;183;919512;-60
2023/04/26 09:49:00;;;;;;;9.10;2.67;;;;;;;;;;755608;183;921375;-64
2023/04/26 09:51:27;;;;;;;6.70;2.43;;;;;;;;;;756594;182;918941;-59
2023/04/26 09:53:51;;;;;;;6.87;2.67;;;;;;;;;;767774;183;917556;-60
2023/04/26 09:56:17;;;;;;;4.50;2.80;;;;;;;;;;763755;182;919304;-59
2023/04/26 09:58:59;;;;;;;5.53;2.75;;;;;;;;;;764634;182;919267;-60
2023/04/26 10:01:24;;;;;;;8.63;2.80;;;;;;;;;;760396;180;919362;-60
2023/04/26 10:03:50;;;;;;;7.00;2.00;;;;;;;;;;754605;186;918223;-59
2023/04/26 10:06:15;;;;;;;8.07;2.10;;;;;;;;;;757900;184;917892;-59
2023/04/26 10:08:41;;;;;;;3.90;2.23;;;;;;;;;;763034;181;921452;-59
2023/04/26 10:11:09;;;;;;;9.90;2.80;;;;;;;;;;770711;181;916137;-59
2023/04/26 10:13:33;;;;;;;3.50;2.33;;;;;;;;;;762575;182;919827;-59
2023/04/26 10:16:00;;;;;;;4.43;2.40;;;;;;;;;;760089;183;920393;-60
2023/04/26 10:18:25;;;;;;;21.43;12.83;;;;;;;;;;764194;182;918983;-58
2023/04/26 10:20:51;;;;;;;8.33;4.20;;;;;;;;;;765493;182;920078;-58
2023/04/26 10:23:18;;;;;;;7.00;3.67;;;;;;;;;;762042;181;905674;-58
2023/04/26 10:25:42;;;;;;;9.90;3.33;;;;;;;;;;762607;182;837211;-59
2023/04/26 10:28:08;;;;;;;14.60;8.53;;;;;;;;;;766887;182;917174;-58
2023/04/26 10:30:34;;;;;;;8.30;5.03;;;;;;;;;;762130;182;915621;-58
2023/04/26 10:33:03;;;;;;;7.53;4.40;;;;;;;;;;761234;182;911559;-58
2023/04/26 10:35:30;;;;;;;16.50;9.30;;;;;;;;;;766660;182;917165;-58
2023/04/26 10:38:14;;;;;;;9.17;6.87;;;;;;;;;;750040;184;819116;-58
2023/04/26 10:40:39;;;;;;;7.27;3.10;;;;;;;;;;761360;182;909891;-59
2023/04/26 10:43:22;;;;;;;4.53;2.30;;;;;;;;;;764166;181;918575;-59
2023/04/26 10:45:49;;;;;;;9.73;3.20;;;;;;;;;;767265;181;820284;-60
2023/04/26 10:48:18;;;;;;;5.00;2.45;;;;;;;;;;760147;182;919645;-60
2023/04/26 10:50:49;;;;;;;4.20;2.50;;;;;;;;;;767269;182;915156;-58
2023/04/26 10:53:15;;;;;;;5.93;3.40;;;;;;;;;;762684;181;918385;-58
2023/04/26 10:55:41;;;;;;;4.93;3.10;;;;;;;;;;762607;181;918850;-59
2023/04/26 10:58:27;;;;;;;6.23;4.00;;;;;;;;;;762834;182;919984;-58
2023/04/26 11:00:58;;;;;;;8.20;3.47;;;;;;;;;;762091;182;918320;-58
2023/04/26 11:03:24;;;;;;;3.80;2.20;;;;;;;;;;765504;182;819289;-58
2023/04/26 11:05:51;;;;;;;6.10;2.97;;;;;;;;;;766639;181;816463;-58
2023/04/26 11:08:16;;;;;;;8.00;3.37;;;;;;;;;;761691;182;922077;-58
2023/04/26 11:10:42;;;;;;;8.10;3.77;;;;;;;;;;764430;181;914317;-58
2023/04/26 11:13:08;;;;;;;5.63;2.70;;;;;;;;;;760426;181;917815;-58
2023/04/26 11:15:33;;;;;;;4.10;2.67;;;;;;;;;;765441;180;859051;-60
2023/04/26 11:18:01;;;;;;;9.90;3.30;;;;;;;;;;762273;181;812097;-59
2023/04/26 11:20:28;;;;;;;6.03;3.90;;;;;;;;;;769098;182;807595;-59
2023/04/26 11:22:53;;;;;;;5.40;3.33;;;;;;;;;;761172;182;930205;-60
2023/04/26 11:25:19;;;;;;;8.90;5.60;;;;;;;;;;760625;181;845140;-60
2023/04/26 11:27:45;;;;;;;7.30;3.10;;;;;;;;;;770703;182;810090;-59
2023/04/26 11:30:12;;;;;;;4.43;2.70;;;;;;;;;;749111;184;918249;-60
2023/04/26 11:32:37;;;;;;;4.53;3.10;;;;;;;;;;758469;182;941912;-60
2023/04/26 11:35:04;;;;;;;6.60;3.03;;;;;;;;;;754657;181;928713;-61
2023/04/26 11:37:29;;;;;;;4.67;2.53;;;;;;;;;;757371;184;916383;-59
2023/04/26 11:39:55;;;;;;;4.13;2.77;;;;;;;;;;753872;181;923061;-60
2023/04/26 11:42:21;;;;;;;5.87;2.37;;;;;;;;;;763429;181;912327;-60
2023/04/26 11:44:47;;;;;;;4.40;2.10;;;;;;;;;;766835;182;818509;-59
2023/04/26 11:47:13;;;;;;;3.67;2.40;;;;;;;;;;762324;182;824867;-59
2023/04/26 11:49:39;;;;;;;5.30;1.80;;;;;;;;;;760933;182;921787;-59
2023/04/26 11:52:04;;;;;;;5.07;2.03;;;;;;;;;;767706;182;918480;-59
2023/04/26 11:54:30;;;;;;;4.90;2.37;;;;;;;;;;761349;182;918541;-59
2023/04/26 11:56:56;;;;;;;5.37;2.23;;;;;;;;;;764793;182;913067;-59
2023/04/26 11:59:23;;;;;;;5.20;2.22;;;;;;;;;;752920;184;922823;-60
2023/04/26 12:01:51;;;;;;;6.17;2.37;;;;;;;;;;763475;182;918463;-59
2023/04/26 12:04:16;;;;;;;6.33;2.00;;;;;;;;;;766423;181;814548;-59
2023/04/26 12:06:42;;;;;;;4.00;2.00;;;;;;;;;;762542;181;816684;-60
2023/04/26 12:09:08;;;;;;;4.00;2.07;;;;;;;;;;767681;181;919006;-59
2023/04/26 12:11:34;;;;;;;5.37;1.80;;;;;;;;;;766303;182;873522;-59
2023/04/26 12:14:00;;;;;;;7.40;2.33;;;;;;;;;;764804;182;914696;-60
2023/04/26 12:16:25;;;;;;;3.60;2.23;;;;;;;;;;767069;182;917987;-60
2023/04/26 12:18:51;;;;;;;8.50;1.90;;;;;;;;;;755291;182;879718;-60
2023/04/26 12:21:17;;;;;;;4.73;1.77;;;;;;;;;;762571;181;919716;-59
2023/04/26 12:23:46;;;;;;;6.60;2.07;;;;;;;;;;762682;182;917306;-60
2023/04/26 12:26:10;;;;;;;8.82;2.62;;;;;;;;;;761894;182;875798;-60
2023/04/26 12:28:35;;;;;;;4.93;2.20;;;;;;;;;;753772;182;919310;-60
2023/04/26 12:31:03;;;;;;;5.47;2.17;;;;;;;;;;753394;182;925439;-59
2023/04/26 12:33:26;;;;;;;3.27;2.27;;;;;;;;;;768188;182;919133;-60
2023/04/26 12:35:52;;;;;;;3.40;1.90;;;;;;;;;;754912;182;918621;-59
2023/04/26 12:38:18;;;;;;;5.25;2.75;;;;;;;;;;754574;182;971720;-60
2023/04/26 12:40:44;;;;;;;4.40;2.30;;;;;;;;;;763399;182;819188;-59
2023/04/26 12:43:10;;;;;;;4.50;1.80;;;;;;;;;;765285;182;921800;-59
2023/04/26 12:45:36;;;;;;;3.17;1.75;;;;;;;;;;762869;181;920862;-59
2023/04/26 12:48:01;;;;;;;4.97;1.97;;;;;;;;;;766543;181;912144;-58
2023/04/26 12:50:27;;;;;;;2.97;1.70;;;;;;;;;;759774;182;868071;-59
2023/04/26 12:52:53;;;;;;;5.27;1.77;;;;;;;;;;760323;182;810632;-59
2023/04/26 12:55:19;;;;;;;5.90;2.13;;;;;;;;;;762310;182;912876;-61
2023/04/26 12:57:45;;;;;;;6.83;2.07;;;;;;;;;;768498;182;802793;-61
2023/04/26 13:00:11;;;;;;;3.95;1.52;;;;;;;;;;760412;182;812237;-59
2023/04/26 13:02:37;;;;;;;3.00;1.53;;;;;;;;;;759546;182;916625;-58
2023/04/26 13:05:05;;;;;;;5.20;2.10;;;;;;;;;;769288;182;947648;-59
2023/04/26 13:07:30;;;;;;;3.50;1.77;;;;;;;;;;763170;182;798518;-59
2023/04/26 13:09:56;;;;;;;10.13;2.17;;;;;;;;;;763496;182;903797;-60
2023/04/26 13:12:22;;;;;;;2.50;1.60;;;;;;;;;;763217;182;1326542;-59
2023/04/26 13:14:47;;;;;;;3.33;2.00;;;;;;;;;;763061;181;916816;-61
2023/04/26 13:17:13;;;;;;;2.83;1.60;;;;;;;;;;761023;182;919507;-60
2023/04/26 13:19:39;;;;;;;3.50;1.63;;;;;;;;;;763550;181;918224;-58
2023/04/26 13:22:07;;;;;;;4.30;2.37;;;;;;;;;;765080;181;919307;-58
2023/04/26 13:24:31;;;;;;;7.83;2.73;;;;;;;;;;765645;181;946142;-58
2023/04/26 13:26:57;;;;;;;9.63;2.27;;;;;;;;;;761007;182;926945;-57
2023/04/26 13:29:23;;;;;;;5.50;2.33;;;;;;;;;;770359;182;1086049;-58
2023/04/26 13:31:48;;;;;;;9.47;5.60;;;;;;;;;;763083;182;918561;-59
2023/04/26 13:34:14;;;;;;;4.90;2.67;;;;;;;;;;764632;182;816725;-58
2023/04/26 13:36:41;;;;;;;3.53;2.40;;;;;;;;;;766775;181;917828;-58
2023/04/26 13:39:06;;;;;;;5.87;2.73;;;;;;;;;;764669;181;860918;-57
2023/04/26 13:41:33;;;;;;;3.73;1.77;;;;;;;;;;759545;182;919061;-59
2023/04/26 13:44:01;;;;;;;5.03;2.33;;;;;;;;;;759881;182;916768;-58
2023/04/26 13:46:28;;;;;;;12.30;7.03;;;;;;;;;;767619;180;816490;-58
2023/04/26 13:48:54;;;;;;;6.63;2.90;;;;;;;;;;761746;181;915513;-58
2023/04/26 13:51:21;;;;;;;4.82;2.12;;;;;;;;;;761828;182;919609;-58
2023/04/26 13:53:47;;;;;;;4.03;2.57;;;;;;;;;;766287;182;824693;-59
2023/04/26 13:56:13;;;;;;;3.40;2.13;;;;;;;;;;762697;182;917801;-59
2023/04/26 13:58:39;;;;;;;9.23;2.87;;;;;;;;;;762533;182;912146;-58
2023/04/26 14:01:05;;;;;;;4.60;2.40;;;;;;;;;;749096;186;855362;-58
2023/04/26 14:03:32;;;;;;;4.07;2.83;;;;;;;;;;763483;182;919138;-58
2023/04/26 14:05:57;;;;;;;9.40;4.70;;;;;;;;;;760232;182;911663;-58
2023/04/26 14:08:22;;;;;;;15.50;9.17;;;;;;;;;;761333;182;920992;-58
2023/04/26 14:10:48;;;;;;;9.07;6.27;;;;;;;;;;767267;182;815466;-58
2023/04/26 14:13:14;;;;;;;8.20;4.23;;;;;;;;;;762763;182;919846;-59
2023/04/26 14:15:40;;;;;;;10.03;5.43;;;;;;;;;;763498;181;910707;-58
2023/04/26 14:18:06;;;;;;;11.97;4.13;;;;;;;;;;768164;181;917639;-58
2023/04/26 14:20:32;;;;;;;9.53;6.60;;;;;;;;;;763205;182;820772;-59